sensor_id;sensor_type;location;lat;lon;timestamp;P1;durP1;ratioP1;P2;durP2;ratioP2
15712;SDS011;7957;51.608;6.916;2023-06-22T00:01:35;4.43;;;4.03;;
15712;SDS011;7957;51.608;6.916;2023-06-22T00:04:04;4.33;;;4.00;;
15712;SDS011;7957;51.608;6.916;2023-06-22T00:06:33;4.53;;;4.23;;
15712;SDS011;7957;51.608;6.916;2023-06-22T00:09:00;4.37;;;3.97;;
15712;SDS011;7957;51.608;6.916;2023-06-22T00:11:28;4.60;;;4.20;;
15712;SDS011;7957;51.608;6.916;2023-06-22T00:13:57;4.77;;;4.37;;
15712;SDS011;7957;51.608;6.916;2023-06-22T00:16:27;5.00;;;4.53;;
15712;SDS011;7957;51.608;6.916;2023-06-22T00:18:54;5.40;;;4.83;;
15712;SDS011;7957;51.608;6.916;2023-06-22T00:21:21;5.20;;;4.70;;
15712;SDS011;7957;51.608;6.916;2023-06-22T00:23:48;5.20;;;4.80;;
15712;SDS011;7957;51.608;6.916;2023-06-22T00:26:15;5.43;;;4.93;;
15712;SDS011;7957;51.608;6.916;2023-06-22T00:28:42;4.97;;;4.57;;
15712;SDS011;7957;51.608;6.916;2023-06-22T00:31:09;5.17;;;4.67;;
15712;SDS011;7957;51.608;6.916;2023-06-22T00:33:37;5.63;;;5.13;;
15712;SDS011;7957;51.608;6.916;2023-06-22T00:36:05;5.73;;;5.07;;
15712;SDS011;7957;51.608;6.916;2023-06-22T00:38:32;5.93;;;4.80;;
15712;SDS011;7957;51.608;6.916;2023-06-22T00:41:00;5.13;;;4.63;;
15712;SDS011;7957;51.608;6.916;2023-06-22T00:43:27;5.90;;;5.23;;
15712;SDS011;7957;51.608;6.916;2023-06-22T00:45:55;5.80;;;5.30;;
15712;SDS011;7957;51.608;6.916;2023-06-22T00:48:22;6.93;;;4.90;;
15712;SDS011;7957;51.608;6.916;2023-06-22T00:50:51;5.17;;;4.67;;
15712;SDS011;7957;51.608;6.916;2023-06-22T00:53:18;7.63;;;5.50;;
15712;SDS011;7957;51.608;6.916;2023-06-22T00:55:46;5.63;;;5.03;;
15712;SDS011;7957;51.608;6.916;2023-06-22T00:58:16;5.93;;;5.30;;
15712;SDS011;7957;51.608;6.916;2023-06-22T01:00:46;7.37;;;5.30;;
15712;SDS011;7957;51.608;6.916;2023-06-22T01:03:16;5.17;;;4.70;;
15712;SDS011;7957;51.608;6.916;2023-06-22T01:05:45;5.80;;;5.20;;
15712;SDS011;7957;51.608;6.916;2023-06-22T01:08:19;6.30;;;5.70;;
15712;SDS011;7957;51.608;6.916;2023-06-22T01:10:53;6.23;;;5.60;;
15712;SDS011;7957;51.608;6.916;2023-06-22T01:13:26;5.73;;;5.13;;
15712;SDS011;7957;51.608;6.916;2023-06-22T01:16:00;5.37;;;4.87;;
15712;SDS011;7957;51.608;6.916;2023-06-22T01:18:30;5.40;;;4.90;;
15712;SDS011;7957;51.608;6.916;2023-06-22T01:21:01;6.33;;;5.73;;
15712;SDS011;7957;51.608;6.916;2023-06-22T01:23:36;6.50;;;5.93;;
15712;SDS011;7957;51.608;6.916;2023-06-22T01:26:17;5.90;;;5.40;;
15712;SDS011;7957;51.608;6.916;2023-06-22T01:28:49;5.90;;;5.40;;
15712;SDS011;7957;51.608;6.916;2023-06-22T01:31:19;6.17;;;5.60;;
15712;SDS011;7957;51.608;6.916;2023-06-22T01:33:50;6.50;;;5.90;;
15712;SDS011;7957;51.608;6.916;2023-06-22T01:36:19;6.13;;;5.53;;
15712;SDS011;7957;51.608;6.916;2023-06-22T01:38:48;6.70;;;6.10;;
15712;SDS011;7957;51.608;6.916;2023-06-22T01:41:16;6.83;;;6.20;;
15712;SDS011;7957;51.608;6.916;2023-06-22T01:43:44;6.30;;;5.70;;
15712;SDS011;7957;51.608;6.916;2023-06-22T01:46:13;6.57;;;5.77;;
15712;SDS011;7957;51.608;6.916;2023-06-22T01:48:44;6.50;;;5.87;;
15712;SDS011;7957;51.608;6.916;2023-06-22T01:51:11;6.40;;;5.80;;
15712;SDS011;7957;51.608;6.916;2023-06-22T01:53:38;7.63;;;6.90;;
15712;SDS011;7957;51.608;6.916;2023-06-22T01:56:05;7.20;;;6.50;;
15712;SDS011;7957;51.608;6.916;2023-06-22T01:58:32;7.70;;;6.50;;
15712;SDS011;7957;51.608;6.916;2023-06-22T02:01:04;7.20;;;6.50;;
15712;SDS011;7957;51.608;6.916;2023-06-22T02:03:38;7.30;;;6.47;;
15712;SDS011;7957;51.608;6.916;2023-06-22T02:06:10;7.47;;;6.60;;
15712;SDS011;7957;51.608;6.916;2023-06-22T02:08:49;6.87;;;6.17;;
15712;SDS011;7957;51.608;6.916;2023-06-22T02:11:21;6.97;;;6.30;;
15712;SDS011;7957;51.608;6.916;2023-06-22T02:13:49;7.20;;;6.60;;
15712;SDS011;7957;51.608;6.916;2023-06-22T02:16:16;7.10;;;6.47;;
15712;SDS011;7957;51.608;6.916;2023-06-22T02:18:47;7.00;;;6.40;;
15712;SDS011;7957;51.608;6.916;2023-06-22T02:21:15;6.83;;;6.23;;
15712;SDS011;7957;51.608;6.916;2023-06-22T02:23:42;7.43;;;6.73;;
15712;SDS011;7957;51.608;6.916;2023-06-22T02:26:10;9.17;;;6.53;;
15712;SDS011;7957;51.608;6.916;2023-06-22T02:28:37;7.43;;;6.77;;
15712;SDS011;7957;51.608;6.916;2023-06-22T02:31:04;7.53;;;6.83;;
15712;SDS011;7957;51.608;6.916;2023-06-22T02:33:31;8.00;;;7.20;;
15712;SDS011;7957;51.608;6.916;2023-06-22T02:35:59;7.50;;;6.80;;
15712;SDS011;7957;51.608;6.916;2023-06-22T02:38:30;7.57;;;6.80;;
15712;SDS011;7957;51.608;6.916;2023-06-22T02:40:59;7.50;;;6.90;;
15712;SDS011;7957;51.608;6.916;2023-06-22T02:43:26;7.87;;;7.00;;
15712;SDS011;7957;51.608;6.916;2023-06-22T02:45:53;6.70;;;6.10;;
15712;SDS011;7957;51.608;6.916;2023-06-22T02:48:20;8.10;;;7.30;;
15712;SDS011;7957;51.608;6.916;2023-06-22T02:50:47;8.07;;;7.37;;
15712;SDS011;7957;51.608;6.916;2023-06-22T02:53:15;7.77;;;7.07;;
15712;SDS011;7957;51.608;6.916;2023-06-22T02:55:42;7.97;;;7.23;;
15712;SDS011;7957;51.608;6.916;2023-06-22T02:58:09;8.10;;;7.30;;
15712;SDS011;7957;51.608;6.916;2023-06-22T03:00:36;8.00;;;7.30;;
15712;SDS011;7957;51.608;6.916;2023-06-22T03:03:04;8.50;;;7.70;;
15712;SDS011;7957;51.608;6.916;2023-06-22T03:05:31;8.53;;;7.80;;
15712;SDS011;7957;51.608;6.916;2023-06-22T03:08:00;8.53;;;7.83;;
15712;SDS011;7957;51.608;6.916;2023-06-22T03:10:28;10.73;;;8.40;;
15712;SDS011;7957;51.608;6.916;2023-06-22T03:12:55;8.57;;;7.80;;
15712;SDS011;7957;51.608;6.916;2023-06-22T03:15:22;8.17;;;7.47;;
15712;SDS011;7957;51.608;6.916;2023-06-22T03:17:50;8.33;;;7.53;;
15712;SDS011;7957;51.608;6.916;2023-06-22T03:20:17;8.93;;;8.20;;
15712;SDS011;7957;51.608;6.916;2023-06-22T03:22:44;8.13;;;7.43;;
15712;SDS011;7957;51.608;6.916;2023-06-22T03:25:11;8.20;;;7.50;;
15712;SDS011;7957;51.608;6.916;2023-06-22T03:27:40;8.37;;;7.63;;
15712;SDS011;7957;51.608;6.916;2023-06-22T03:30:10;8.83;;;8.03;;
15712;SDS011;7957;51.608;6.916;2023-06-22T03:32:37;9.13;;;8.33;;
15712;SDS011;7957;51.608;6.916;2023-06-22T03:35:05;8.53;;;7.83;;
15712;SDS011;7957;51.608;6.916;2023-06-22T03:37:32;9.47;;;8.57;;
15712;SDS011;7957;51.608;6.916;2023-06-22T03:39:59;8.80;;;8.10;;
15712;SDS011;7957;51.608;6.916;2023-06-22T03:42:26;8.47;;;7.67;;
15712;SDS011;7957;51.608;6.916;2023-06-22T03:44:55;9.23;;;8.33;;
15712;SDS011;7957;51.608;6.916;2023-06-22T03:47:22;8.83;;;8.03;;
15712;SDS011;7957;51.608;6.916;2023-06-22T03:49:49;8.83;;;8.07;;
15712;SDS011;7957;51.608;6.916;2023-06-22T03:52:19;8.70;;;7.90;;
15712;SDS011;7957;51.608;6.916;2023-06-22T03:54:46;8.80;;;8.00;;
15712;SDS011;7957;51.608;6.916;2023-06-22T03:57:13;9.30;;;8.47;;
15712;SDS011;7957;51.608;6.916;2023-06-22T03:59:40;8.57;;;7.87;;
15712;SDS011;7957;51.608;6.916;2023-06-22T04:02:09;9.40;;;8.50;;
15712;SDS011;7957;51.608;6.916;2023-06-22T04:04:36;8.80;;;8.10;;
15712;SDS011;7957;51.608;6.916;2023-06-22T04:07:04;11.10;;;8.20;;
15712;SDS011;7957;51.608;6.916;2023-06-22T04:09:31;9.40;;;8.50;;
15712;SDS011;7957;51.608;6.916;2023-06-22T04:11:58;9.13;;;8.33;;
15712;SDS011;7957;51.608;6.916;2023-06-22T04:14:25;9.30;;;8.50;;
15712;SDS011;7957;51.608;6.916;2023-06-22T04:16:52;9.40;;;8.60;;
15712;SDS011;7957;51.608;6.916;2023-06-22T04:19:20;9.37;;;8.57;;
15712;SDS011;7957;51.608;6.916;2023-06-22T04:21:48;9.33;;;8.47;;
15712;SDS011;7957;51.608;6.916;2023-06-22T04:24:15;9.60;;;8.70;;
15712;SDS011;7957;51.608;6.916;2023-06-22T04:26:42;9.67;;;8.83;;
15712;SDS011;7957;51.608;6.916;2023-06-22T04:29:10;8.90;;;8.20;;
15712;SDS011;7957;51.608;6.916;2023-06-22T04:31:37;9.23;;;8.33;;
15712;SDS011;7957;51.608;6.916;2023-06-22T04:34:05;9.37;;;8.67;;
15712;SDS011;7957;51.608;6.916;2023-06-22T04:36:37;10.53;;;9.17;;
15712;SDS011;7957;51.608;6.916;2023-06-22T04:39:05;9.77;;;8.90;;
15712;SDS011;7957;51.608;6.916;2023-06-22T04:41:34;9.53;;;8.73;;
15712;SDS011;7957;51.608;6.916;2023-06-22T04:44:08;9.60;;;8.60;;
15712;SDS011;7957;51.608;6.916;2023-06-22T04:46:36;9.87;;;8.87;;
15712;SDS011;7957;51.608;6.916;2023-06-22T04:49:04;9.40;;;8.60;;
15712;SDS011;7957;51.608;6.916;2023-06-22T04:51:39;9.57;;;8.60;;
15712;SDS011;7957;51.608;6.916;2023-06-22T04:54:06;10.03;;;9.23;;
15712;SDS011;7957;51.608;6.916;2023-06-22T04:56:34;9.47;;;8.67;;
15712;SDS011;7957;51.608;6.916;2023-06-22T04:59:01;9.70;;;8.90;;
15712;SDS011;7957;51.608;6.916;2023-06-22T05:01:29;10.20;;;9.17;;
15712;SDS011;7957;51.608;6.916;2023-06-22T05:03:57;10.13;;;9.10;;
15712;SDS011;7957;51.608;6.916;2023-06-22T05:06:26;9.73;;;8.90;;
15712;SDS011;7957;51.608;6.916;2023-06-22T05:08:55;9.73;;;8.90;;
15712;SDS011;7957;51.608;6.916;2023-06-22T05:11:23;9.87;;;9.00;;
15712;SDS011;7957;51.608;6.916;2023-06-22T05:13:51;9.33;;;8.43;;
15712;SDS011;7957;51.608;6.916;2023-06-22T05:16:18;12.50;;;9.23;;
15712;SDS011;7957;51.608;6.916;2023-06-22T05:18:48;10.10;;;9.20;;
15712;SDS011;7957;51.608;6.916;2023-06-22T05:21:16;10.23;;;9.07;;
15712;SDS011;7957;51.608;6.916;2023-06-22T05:23:44;9.50;;;8.70;;
15712;SDS011;7957;51.608;6.916;2023-06-22T05:26:12;9.23;;;8.33;;
15712;SDS011;7957;51.608;6.916;2023-06-22T05:28:39;10.03;;;9.13;;
15712;SDS011;7957;51.608;6.916;2023-06-22T05:31:06;9.60;;;8.60;;
15712;SDS011;7957;51.608;6.916;2023-06-22T05:33:33;8.63;;;7.90;;
15712;SDS011;7957;51.608;6.916;2023-06-22T05:36:00;9.53;;;8.53;;
15712;SDS011;7957;51.608;6.916;2023-06-22T05:38:27;9.67;;;8.80;;
15712;SDS011;7957;51.608;6.916;2023-06-22T05:40:53;11.13;;;8.90;;
15712;SDS011;7957;51.608;6.916;2023-06-22T05:43:22;9.87;;;8.87;;
15712;SDS011;7957;51.608;6.916;2023-06-22T05:45:49;10.50;;;8.80;;
15712;SDS011;7957;51.608;6.916;2023-06-22T05:48:16;9.93;;;8.93;;
15712;SDS011;7957;51.608;6.916;2023-06-22T05:50:43;9.43;;;8.53;;
15712;SDS011;7957;51.608;6.916;2023-06-22T05:53:10;8.87;;;8.07;;
15712;SDS011;7957;51.608;6.916;2023-06-22T05:55:38;9.33;;;8.43;;
15712;SDS011;7957;51.608;6.916;2023-06-22T05:58:05;9.33;;;8.43;;
15712;SDS011;7957;51.608;6.916;2023-06-22T06:00:34;10.03;;;9.07;;
15712;SDS011;7957;51.608;6.916;2023-06-22T06:03:01;9.50;;;8.70;;
15712;SDS011;7957;51.608;6.916;2023-06-22T06:05:29;10.07;;;9.03;;
15712;SDS011;7957;51.608;6.916;2023-06-22T06:07:56;9.07;;;8.17;;
15712;SDS011;7957;51.608;6.916;2023-06-22T06:10:23;10.23;;;9.23;;
15712;SDS011;7957;51.608;6.916;2023-06-22T06:12:50;9.70;;;8.63;;
15712;SDS011;7957;51.608;6.916;2023-06-22T06:15:17;9.43;;;8.63;;
15712;SDS011;7957;51.608;6.916;2023-06-22T06:17:48;9.20;;;8.40;;
15712;SDS011;7957;51.608;6.916;2023-06-22T06:20:17;8.73;;;7.93;;
15712;SDS011;7957;51.608;6.916;2023-06-22T06:22:46;9.67;;;8.83;;
15712;SDS011;7957;51.608;6.916;2023-06-22T06:25:13;8.90;;;8.03;;
15712;SDS011;7957;51.608;6.916;2023-06-22T06:27:42;9.10;;;8.30;;
15712;SDS011;7957;51.608;6.916;2023-06-22T06:30:09;9.97;;;9.07;;
15712;SDS011;7957;51.608;6.916;2023-06-22T06:32:37;10.07;;;9.07;;
15712;SDS011;7957;51.608;6.916;2023-06-22T06:35:07;10.40;;;8.57;;
15712;SDS011;7957;51.608;6.916;2023-06-22T06:37:35;10.23;;;9.00;;
15712;SDS011;7957;51.608;6.916;2023-06-22T06:40:04;9.67;;;8.47;;
15712;SDS011;7957;51.608;6.916;2023-06-22T06:42:33;9.90;;;9.10;;
15712;SDS011;7957;51.608;6.916;2023-06-22T06:45:02;10.30;;;9.30;;
15712;SDS011;7957;51.608;6.916;2023-06-22T06:47:30;9.00;;;8.30;;
15712;SDS011;7957;51.608;6.916;2023-06-22T06:49:57;10.20;;;9.00;;
15712;SDS011;7957;51.608;6.916;2023-06-22T06:52:27;10.13;;;9.23;;
15712;SDS011;7957;51.608;6.916;2023-06-22T06:54:54;9.60;;;8.80;;
15712;SDS011;7957;51.608;6.916;2023-06-22T06:57:24;9.57;;;8.77;;
15712;SDS011;7957;51.608;6.916;2023-06-22T06:59:54;10.73;;;9.73;;
15712;SDS011;7957;51.608;6.916;2023-06-22T07:02:22;10.17;;;9.17;;
15712;SDS011;7957;51.608;6.916;2023-06-22T07:04:49;9.17;;;8.47;;
15712;SDS011;7957;51.608;6.916;2023-06-22T07:07:16;10.40;;;9.10;;
15712;SDS011;7957;51.608;6.916;2023-06-22T07:09:44;10.47;;;9.57;;
15712;SDS011;7957;51.608;6.916;2023-06-22T07:12:11;10.40;;;9.50;;
15712;SDS011;7957;51.608;6.916;2023-06-22T07:14:38;9.80;;;8.97;;
15712;SDS011;7957;51.608;6.916;2023-06-22T07:17:05;10.33;;;9.53;;
15712;SDS011;7957;51.608;6.916;2023-06-22T07:19:32;10.27;;;9.37;;
15712;SDS011;7957;51.608;6.916;2023-06-22T07:21:59;11.77;;;10.67;;
15712;SDS011;7957;51.608;6.916;2023-06-22T07:24:27;10.37;;;9.50;;
15712;SDS011;7957;51.608;6.916;2023-06-22T07:26:55;9.93;;;9.00;;
15712;SDS011;7957;51.608;6.916;2023-06-22T07:29:22;10.73;;;9.87;;
15712;SDS011;7957;51.608;6.916;2023-06-22T07:31:49;11.60;;;10.60;;
15712;SDS011;7957;51.608;6.916;2023-06-22T07:34:17;10.90;;;9.90;;
15712;SDS011;7957;51.608;6.916;2023-06-22T07:36:44;10.50;;;9.60;;
15712;SDS011;7957;51.608;6.916;2023-06-22T07:39:11;11.23;;;10.13;;
15712;SDS011;7957;51.608;6.916;2023-06-22T07:41:38;11.90;;;10.73;;
15712;SDS011;7957;51.608;6.916;2023-06-22T07:44:07;10.90;;;9.80;;
15712;SDS011;7957;51.608;6.916;2023-06-22T07:46:34;11.03;;;10.03;;
15712;SDS011;7957;51.608;6.916;2023-06-22T07:49:01;11.47;;;10.37;;
15712;SDS011;7957;51.608;6.916;2023-06-22T07:51:28;11.83;;;10.70;;
15712;SDS011;7957;51.608;6.916;2023-06-22T07:53:55;10.63;;;9.70;;
15712;SDS011;7957;51.608;6.916;2023-06-22T07:56:22;10.40;;;9.50;;
15712;SDS011;7957;51.608;6.916;2023-06-22T07:58:49;11.73;;;10.73;;
15712;SDS011;7957;51.608;6.916;2023-06-22T08:01:17;10.90;;;9.90;;
15712;SDS011;7957;51.608;6.916;2023-06-22T08:03:46;10.80;;;9.77;;
15712;SDS011;7957;51.608;6.916;2023-06-22T08:06:13;11.30;;;10.30;;
15712;SDS011;7957;51.608;6.916;2023-06-22T08:08:43;11.60;;;10.60;;
15712;SDS011;7957;51.608;6.916;2023-06-22T08:11:13;10.63;;;9.80;;
15712;SDS011;7957;51.608;6.916;2023-06-22T08:13:39;11.63;;;10.53;;
15712;SDS011;7957;51.608;6.916;2023-06-22T08:16:06;11.53;;;10.53;;
15712;SDS011;7957;51.608;6.916;2023-06-22T08:18:35;10.67;;;9.77;;
15712;SDS011;7957;51.608;6.916;2023-06-22T08:21:02;11.57;;;10.53;;
15712;SDS011;7957;51.608;6.916;2023-06-22T08:23:29;11.50;;;10.40;;
15712;SDS011;7957;51.608;6.916;2023-06-22T08:25:56;12.13;;;10.90;;
15712;SDS011;7957;51.608;6.916;2023-06-22T08:28:23;11.30;;;10.40;;
15712;SDS011;7957;51.608;6.916;2023-06-22T08:30:49;11.43;;;10.50;;
15712;SDS011;7957;51.608;6.916;2023-06-22T08:33:17;11.47;;;10.57;;
15712;SDS011;7957;51.608;6.916;2023-06-22T08:35:46;12.23;;;11.13;;
15712;SDS011;7957;51.608;6.916;2023-06-22T08:38:13;11.40;;;10.40;;
15712;SDS011;7957;51.608;6.916;2023-06-22T08:40:40;11.60;;;10.60;;
15712;SDS011;7957;51.608;6.916;2023-06-22T08:43:07;11.33;;;10.43;;
15712;SDS011;7957;51.608;6.916;2023-06-22T08:45:34;14.97;;;13.57;;
15712;SDS011;7957;51.608;6.916;2023-06-22T08:48:02;12.77;;;11.63;;
15712;SDS011;7957;51.608;6.916;2023-06-22T08:50:29;14.43;;;12.97;;
15712;SDS011;7957;51.608;6.916;2023-06-22T08:52:57;12.90;;;11.80;;
15712;SDS011;7957;51.608;6.916;2023-06-22T08:55:24;12.67;;;11.47;;
15712;SDS011;7957;51.608;6.916;2023-06-22T08:57:52;14.10;;;12.70;;
15712;SDS011;7957;51.608;6.916;2023-06-22T09:00:20;13.37;;;12.03;;
15712;SDS011;7957;51.608;6.916;2023-06-22T09:02:47;15.53;;;14.13;;
15712;SDS011;7957;51.608;6.916;2023-06-22T09:05:15;15.90;;;14.50;;
15712;SDS011;7957;51.608;6.916;2023-06-22T09:07:42;16.07;;;14.67;;
15712;SDS011;7957;51.608;6.916;2023-06-22T09:10:11;16.83;;;15.23;;
15712;SDS011;7957;51.608;6.916;2023-06-22T09:12:38;17.03;;;15.27;;
15712;SDS011;7957;51.608;6.916;2023-06-22T09:15:06;16.57;;;14.97;;
15712;SDS011;7957;51.608;6.916;2023-06-22T09:17:33;16.37;;;14.67;;
15712;SDS011;7957;51.608;6.916;2023-06-22T09:20:01;14.90;;;13.43;;
15712;SDS011;7957;51.608;6.916;2023-06-22T09:22:30;17.40;;;15.90;;
15712;SDS011;7957;51.608;6.916;2023-06-22T09:24:58;17.57;;;15.77;;
15712;SDS011;7957;51.608;6.916;2023-06-22T09:27:29;14.77;;;13.57;;
15712;SDS011;7957;51.608;6.916;2023-06-22T09:29:56;15.37;;;13.87;;
15712;SDS011;7957;51.608;6.916;2023-06-22T09:32:23;16.73;;;13.83;;
15712;SDS011;7957;51.608;6.916;2023-06-22T09:34:50;15.87;;;14.33;;
15712;SDS011;7957;51.608;6.916;2023-06-22T09:37:18;14.23;;;13.03;;
15712;SDS011;7957;51.608;6.916;2023-06-22T09:39:45;16.00;;;14.43;;
15712;SDS011;7957;51.608;6.916;2023-06-22T09:42:12;15.37;;;13.83;;
15712;SDS011;7957;51.608;6.916;2023-06-22T09:44:40;14.30;;;12.90;;
15712;SDS011;7957;51.608;6.916;2023-06-22T09:47:08;15.20;;;13.80;;
15712;SDS011;7957;51.608;6.916;2023-06-22T09:49:35;14.73;;;13.53;;
15712;SDS011;7957;51.608;6.916;2023-06-22T09:52:02;14.70;;;13.20;;
15712;SDS011;7957;51.608;6.916;2023-06-22T09:54:29;13.93;;;12.57;;
15712;SDS011;7957;51.608;6.916;2023-06-22T09:56:56;13.70;;;12.30;;
15712;SDS011;7957;51.608;6.916;2023-06-22T09:59:23;13.97;;;12.70;;
15712;SDS011;7957;51.608;6.916;2023-06-22T10:01:52;13.77;;;11.90;;
15712;SDS011;7957;51.608;6.916;2023-06-22T10:04:19;13.80;;;12.70;;
15712;SDS011;7957;51.608;6.916;2023-06-22T10:06:46;13.77;;;12.60;;
15712;SDS011;7957;51.608;6.916;2023-06-22T10:09:13;13.33;;;12.03;;
15712;SDS011;7957;51.608;6.916;2023-06-22T10:11:39;13.20;;;11.83;;
15712;SDS011;7957;51.608;6.916;2023-06-22T10:14:07;13.63;;;12.53;;
15712;SDS011;7957;51.608;6.916;2023-06-22T10:16:35;12.07;;;10.97;;
15712;SDS011;7957;51.608;6.916;2023-06-22T10:19:05;12.93;;;11.70;;
15712;SDS011;7957;51.608;6.916;2023-06-22T10:21:32;12.67;;;11.47;;
15712;SDS011;7957;51.608;6.916;2023-06-22T10:23:59;11.40;;;10.30;;
15712;SDS011;7957;51.608;6.916;2023-06-22T10:26:33;10.50;;;9.40;;
15712;SDS011;7957;51.608;6.916;2023-06-22T10:29:00;10.43;;;9.53;;
15712;SDS011;7957;51.608;6.916;2023-06-22T10:31:28;11.53;;;10.50;;
15712;SDS011;7957;51.608;6.916;2023-06-22T10:33:55;13.20;;;11.67;;
15712;SDS011;7957;51.608;6.916;2023-06-22T10:36:23;11.70;;;10.60;;
15712;SDS011;7957;51.608;6.916;2023-06-22T10:38:50;11.80;;;10.57;;
15712;SDS011;7957;51.608;6.916;2023-06-22T10:41:18;11.70;;;10.53;;
15712;SDS011;7957;51.608;6.916;2023-06-22T10:43:46;11.93;;;10.20;;
15712;SDS011;7957;51.608;6.916;2023-06-22T10:46:12;12.20;;;11.10;;
15712;SDS011;7957;51.608;6.916;2023-06-22T10:48:40;12.03;;;10.93;;
15712;SDS011;7957;51.608;6.916;2023-06-22T10:51:07;12.40;;;11.27;;
15712;SDS011;7957;51.608;6.916;2023-06-22T10:53:35;11.40;;;10.40;;
15712;SDS011;7957;51.608;6.916;2023-06-22T10:56:02;13.20;;;11.77;;
15712;SDS011;7957;51.608;6.916;2023-06-22T10:58:29;12.10;;;11.03;;
15712;SDS011;7957;51.608;6.916;2023-06-22T11:00:56;12.10;;;11.00;;
15712;SDS011;7957;51.608;6.916;2023-06-22T11:03:24;13.30;;;12.10;;
15712;SDS011;7957;51.608;6.916;2023-06-22T11:05:51;12.27;;;11.27;;
15712;SDS011;7957;51.608;6.916;2023-06-22T11:08:17;11.23;;;10.23;;
15712;SDS011;7957;51.608;6.916;2023-06-22T11:10:50;11.43;;;10.53;;
15712;SDS011;7957;51.608;6.916;2023-06-22T11:13:17;11.60;;;10.50;;
15712;SDS011;7957;51.608;6.916;2023-06-22T11:15:44;10.67;;;9.67;;
15712;SDS011;7957;51.608;6.916;2023-06-22T11:18:11;10.40;;;9.40;;
15712;SDS011;7957;51.608;6.916;2023-06-22T11:20:39;10.47;;;9.47;;
15712;SDS011;7957;51.608;6.916;2023-06-22T11:23:06;10.27;;;9.27;;
15712;SDS011;7957;51.608;6.916;2023-06-22T11:25:37;9.50;;;8.80;;
15712;SDS011;7957;51.608;6.916;2023-06-22T11:28:05;9.73;;;8.90;;
15712;SDS011;7957;51.608;6.916;2023-06-22T11:30:32;9.23;;;8.43;;
15712;SDS011;7957;51.608;6.916;2023-06-22T11:32:59;9.07;;;8.27;;
15712;SDS011;7957;51.608;6.916;2023-06-22T11:35:26;9.60;;;8.70;;
15712;SDS011;7957;51.608;6.916;2023-06-22T11:37:53;8.80;;;7.90;;
15712;SDS011;7957;51.608;6.916;2023-06-22T11:40:21;8.83;;;8.13;;
15712;SDS011;7957;51.608;6.916;2023-06-22T11:42:48;8.93;;;8.23;;
15712;SDS011;7957;51.608;6.916;2023-06-22T11:45:16;8.53;;;7.93;;
15712;SDS011;7957;51.608;6.916;2023-06-22T11:47:44;8.53;;;7.90;;
15712;SDS011;7957;51.608;6.916;2023-06-22T11:50:10;8.10;;;7.43;;
15712;SDS011;7957;51.608;6.916;2023-06-22T11:52:41;8.73;;;8.03;;
15712;SDS011;7957;51.608;6.916;2023-06-22T11:55:10;8.30;;;7.70;;
15712;SDS011;7957;51.608;6.916;2023-06-22T11:57:38;9.10;;;8.20;;
15712;SDS011;7957;51.608;6.916;2023-06-22T12:00:19;8.83;;;8.13;;
15712;SDS011;7957;51.608;6.916;2023-06-22T12:02:48;8.97;;;7.83;;
15712;SDS011;7957;51.608;6.916;2023-06-22T12:05:22;9.40;;;8.70;;
15712;SDS011;7957;51.608;6.916;2023-06-22T12:11:18;10.83;;;9.90;;
15712;SDS011;7957;51.608;6.916;2023-06-22T12:13:55;9.87;;;9.07;;
15712;SDS011;7957;51.608;6.916;2023-06-22T12:16:32;10.40;;;9.50;;
15712;SDS011;7957;51.608;6.916;2023-06-22T12:19:05;10.73;;;9.73;;
15712;SDS011;7957;51.608;6.916;2023-06-22T12:21:39;11.10;;;10.00;;
15712;SDS011;7957;51.608;6.916;2023-06-22T12:24:14;10.87;;;9.87;;
15712;SDS011;7957;51.608;6.916;2023-06-22T12:32:13;14.17;;;12.87;;
15712;SDS011;7957;51.608;6.916;2023-06-22T12:34:43;14.60;;;13.30;;
15712;SDS011;7957;51.608;6.916;2023-06-22T12:37:13;15.07;;;13.80;;
15712;SDS011;7957;51.608;6.916;2023-06-22T12:39:40;15.33;;;13.90;;
15712;SDS011;7957;51.608;6.916;2023-06-22T12:42:08;16.53;;;14.93;;
15712;SDS011;7957;51.608;6.916;2023-06-22T12:44:37;15.73;;;14.10;;
15712;SDS011;7957;51.608;6.916;2023-06-22T12:47:04;13.60;;;12.40;;
15712;SDS011;7957;51.608;6.916;2023-06-22T12:49:34;15.83;;;14.53;;
15712;SDS011;7957;51.608;6.916;2023-06-22T12:52:01;16.27;;;14.77;;
15712;SDS011;7957;51.608;6.916;2023-06-22T12:54:29;15.80;;;14.27;;
15712;SDS011;7957;51.608;6.916;2023-06-22T12:56:56;16.10;;;14.70;;
15712;SDS011;7957;51.608;6.916;2023-06-22T12:59:23;15.10;;;13.80;;
15712;SDS011;7957;51.608;6.916;2023-06-22T13:01:50;14.87;;;13.57;;
15712;SDS011;7957;51.608;6.916;2023-06-22T13:04:17;14.20;;;12.87;;
15712;SDS011;7957;51.608;6.916;2023-06-22T13:06:45;13.43;;;12.23;;
15712;SDS011;7957;51.608;6.916;2023-06-22T13:09:13;15.23;;;13.93;;
15712;SDS011;7957;51.608;6.916;2023-06-22T13:11:40;15.37;;;14.07;;
15712;SDS011;7957;51.608;6.916;2023-06-22T13:14:07;15.37;;;13.97;;
15712;SDS011;7957;51.608;6.916;2023-06-22T13:16:34;15.57;;;14.23;;
15712;SDS011;7957;51.608;6.916;2023-06-22T13:19:02;14.63;;;13.43;;
15712;SDS011;7957;51.608;6.916;2023-06-22T13:21:32;16.40;;;15.10;;
15712;SDS011;7957;51.608;6.916;2023-06-22T13:24:02;17.17;;;15.67;;
15712;SDS011;7957;51.608;6.916;2023-06-22T13:26:31;15.87;;;14.47;;
15712;SDS011;7957;51.608;6.916;2023-06-22T13:29:09;17.13;;;15.57;;
15712;SDS011;7957;51.608;6.916;2023-06-22T13:31:46;17.90;;;16.40;;
15712;SDS011;7957;51.608;6.916;2023-06-22T13:34:19;17.07;;;15.57;;
15712;SDS011;7957;51.608;6.916;2023-06-22T13:36:46;19.43;;;17.83;;
15712;SDS011;7957;51.608;6.916;2023-06-22T13:39:23;20.27;;;18.57;;
15712;SDS011;7957;51.608;6.916;2023-06-22T13:41:53;20.20;;;18.53;;
15712;SDS011;7957;51.608;6.916;2023-06-22T13:44:20;20.57;;;18.87;;
15712;SDS011;7957;51.608;6.916;2023-06-22T13:46:47;20.80;;;19.03;;
15712;SDS011;7957;51.608;6.916;2023-06-22T13:49:14;22.20;;;20.40;;
15712;SDS011;7957;51.608;6.916;2023-06-22T13:51:41;21.53;;;19.70;;
15712;SDS011;7957;51.608;6.916;2023-06-22T13:54:08;19.93;;;18.30;;
15712;SDS011;7957;51.608;6.916;2023-06-22T13:56:37;21.30;;;19.57;;
15712;SDS011;7957;51.608;6.916;2023-06-22T13:59:03;21.43;;;19.70;;
15712;SDS011;7957;51.608;6.916;2023-06-22T14:01:31;21.77;;;19.13;;
15712;SDS011;7957;51.608;6.916;2023-06-22T14:03:58;20.87;;;19.13;;
15712;SDS011;7957;51.608;6.916;2023-06-22T14:06:26;20.67;;;18.73;;
15712;SDS011;7957;51.608;6.916;2023-06-22T14:08:53;22.00;;;20.13;;
15712;SDS011;7957;51.608;6.916;2023-06-22T14:11:21;20.17;;;18.27;;
15712;SDS011;7957;51.608;6.916;2023-06-22T14:13:49;19.90;;;18.00;;
15712;SDS011;7957;51.608;6.916;2023-06-22T14:16:16;20.20;;;18.50;;
15712;SDS011;7957;51.608;6.916;2023-06-22T14:18:45;21.70;;;20.00;;
15712;SDS011;7957;51.608;6.916;2023-06-22T14:21:12;20.37;;;18.77;;
15712;SDS011;7957;51.608;6.916;2023-06-22T14:23:39;21.77;;;19.97;;
15712;SDS011;7957;51.608;6.916;2023-06-22T14:26:06;21.10;;;19.43;;
15712;SDS011;7957;51.608;6.916;2023-06-22T14:28:33;21.43;;;19.63;;
15712;SDS011;7957;51.608;6.916;2023-06-22T14:31:01;20.80;;;19.20;;
15712;SDS011;7957;51.608;6.916;2023-06-22T14:33:28;20.13;;;18.57;;
15712;SDS011;7957;51.608;6.916;2023-06-22T14:35:58;20.93;;;19.20;;
15712;SDS011;7957;51.608;6.916;2023-06-22T14:38:24;20.13;;;18.33;;
15712;SDS011;7957;51.608;6.916;2023-06-22T14:40:52;21.83;;;20.03;;
15712;SDS011;7957;51.608;6.916;2023-06-22T14:43:19;23.27;;;21.37;;
15712;SDS011;7957;51.608;6.916;2023-06-22T14:45:46;23.17;;;21.07;;
15712;SDS011;7957;51.608;6.916;2023-06-22T14:48:15;22.30;;;20.40;;
15712;SDS011;7957;51.608;6.916;2023-06-22T14:50:42;22.40;;;20.50;;
15712;SDS011;7957;51.608;6.916;2023-06-22T14:53:08;22.00;;;20.17;;
15712;SDS011;7957;51.608;6.916;2023-06-22T14:55:35;22.03;;;20.27;;
15712;SDS011;7957;51.608;6.916;2023-06-22T14:58:02;22.73;;;20.83;;
15712;SDS011;7957;51.608;6.916;2023-06-22T15:00:29;22.27;;;20.43;;
15712;SDS011;7957;51.608;6.916;2023-06-22T15:02:56;22.37;;;20.50;;